createdAt,value
2022-12-12T00:04:07.053Z,18.20
2022-12-12T00:09:09.534Z,18.83
2022-12-12T00:14:11.388Z,17.73
2022-12-12T00:19:14.539Z,20.50
2022-12-12T00:24:16.369Z,19.63
2022-12-12T00:29:18.261Z,18.70
2022-12-12T00:34:21.472Z,18.70
2022-12-12T00:39:23.821Z,18.93
2022-12-12T00:44:25.686Z,18.60
2022-12-12T00:49:28.896Z,18.53
2022-12-12T00:54:30.901Z,20.07
2022-12-12T00:59:32.758Z,20.60
2022-12-12T01:04:35.983Z,19.40
2022-12-12T01:09:37.914Z,19.30
2022-12-12T01:14:39.771Z,20.90
2022-12-12T01:19:43.071Z,19.47
2022-12-12T01:24:44.902Z,19.77
2022-12-12T01:29:46.654Z,20.10
2022-12-12T01:34:49.983Z,19.37
2022-12-12T01:39:52.044Z,20.60
2022-12-12T01:44:54.061Z,21.30
2022-12-12T01:49:58.681Z,20.83
2022-12-12T01:55:01.158Z,20.97
2022-12-12T02:00:05.024Z,20.80
2022-12-12T02:05:14.833Z,22.00
2022-12-12T02:10:16.672Z,20.10
2022-12-12T02:15:18.460Z,21.53
2022-12-12T02:20:35.970Z,20.83
2022-12-12T02:25:57.507Z,19.93
2022-12-12T02:31:13.406Z,19.70
2022-12-12T02:36:18.228Z,21.23
2022-12-12T02:41:26.344Z,19.50
2022-12-12T02:46:31.967Z,21.13
2022-12-12T02:51:33.828Z,22.80
2022-12-12T02:56:51.055Z,22.80
2022-12-12T03:02:06.776Z,22.27
2022-12-12T03:07:29.701Z,21.57
2022-12-12T03:12:35.061Z,21.90
2022-12-12T03:17:41.466Z,22.23
2022-12-12T03:22:44.860Z,21.77
2022-12-12T03:27:49.412Z,21.47
2022-12-12T03:32:54.154Z,22.70
2022-12-12T03:37:59.020Z,22.77
2022-12-12T03:43:02.708Z,21.80
2022-12-12T03:48:08.346Z,22.33
2022-12-12T03:53:11.598Z,21.10
2022-12-12T03:58:14.613Z,20.47
2022-12-12T04:03:21.448Z,20.03
2022-12-12T04:08:23.316Z,21.10
2022-12-12T04:13:32.076Z,20.50
2022-12-12T04:18:37.764Z,20.37
2022-12-12T04:23:43.324Z,20.63
2022-12-12T04:28:49.743Z,21.30
2022-12-12T04:33:53.965Z,21.07
2022-12-12T04:38:55.927Z,21.20
2022-12-12T04:43:57.690Z,21.50
2022-12-12T04:49:03.254Z,24.60
2022-12-12T04:54:07.778Z,20.90
2022-12-12T04:59:09.589Z,21.73
2022-12-12T05:04:16.496Z,19.93
2022-12-12T05:09:18.451Z,21.13
2022-12-12T05:14:20.362Z,20.17
2022-12-12T05:19:23.618Z,20.73
2022-12-12T05:24:31.311Z,20.27
2022-12-12T05:29:35.195Z,20.93
2022-12-12T05:34:38.443Z,20.47
2022-12-12T05:39:45.309Z,22.13
2022-12-12T05:44:48.035Z,20.77
2022-12-12T05:49:51.309Z,20.10
2022-12-12T05:54:53.373Z,21.47
2022-12-12T05:59:56.038Z,22.80
2022-12-12T06:04:59.497Z,20.97
2022-12-12T06:10:01.395Z,21.30
2022-12-12T06:15:03.418Z,19.60
2022-12-12T06:20:07.759Z,21.77
2022-12-12T06:25:09.602Z,21.40
2022-12-12T06:30:12.052Z,21.00
2022-12-12T06:35:16.314Z,21.27
2022-12-12T06:40:18.220Z,21.00
2022-12-12T06:45:19.987Z,21.87
2022-12-12T06:50:24.033Z,21.13
2022-12-12T06:55:25.911Z,22.20
2022-12-12T07:00:27.660Z,21.87
2022-12-12T07:05:30.865Z,22.20
2022-12-12T07:10:35.274Z,22.13
2022-12-12T07:15:42.160Z,21.10
2022-12-12T07:20:46.135Z,21.97
2022-12-12T07:25:47.906Z,21.10
2022-12-12T07:30:49.802Z,21.97
2022-12-12T07:35:57.648Z,20.80
2022-12-12T07:41:02.959Z,20.33
2022-12-12T07:46:06.074Z,21.17
2022-12-12T07:51:09.432Z,20.13
2022-12-12T07:56:12.182Z,20.60
2022-12-12T08:01:15.565Z,20.70
2022-12-12T08:06:18.745Z,21.67
2022-12-12T08:11:21.509Z,21.73
2022-12-12T08:16:24.998Z,21.73
2022-12-12T08:21:28.247Z,21.47
2022-12-12T08:26:30.488Z,22.10
2022-12-12T08:31:32.533Z,21.60
2022-12-12T08:36:36.148Z,21.77
2022-12-12T08:41:39.517Z,21.53
2022-12-12T08:46:41.625Z,21.40
2022-12-12T08:51:45.000Z,22.90
2022-12-12T08:56:46.770Z,22.13
2022-12-12T09:01:48.627Z,23.10
2022-12-12T09:06:54.981Z,24.43
2022-12-12T09:11:56.829Z,23.23
2022-12-12T09:16:58.798Z,24.20
2022-12-12T09:22:02.699Z,22.50
2022-12-12T09:27:04.493Z,21.97
2022-12-12T09:32:06.685Z,23.70
2022-12-12T09:37:09.969Z,21.30
2022-12-12T09:42:12.344Z,22.20
2022-12-12T09:47:16.939Z,22.80
2022-12-12T09:52:27.717Z,23.00
2022-12-12T09:57:34.622Z,24.30
2022-12-12T10:02:42.374Z,22.93
2022-12-12T10:07:47.588Z,22.30
2022-12-12T10:12:49.567Z,20.63
2022-12-12T10:17:51.334Z,22.90
2022-12-12T10:22:57.430Z,25.57
2022-12-12T10:28:04.738Z,23.23
2022-12-12T10:33:13.846Z,21.40
2022-12-12T10:38:31.355Z,22.00
2022-12-12T10:43:35.368Z,22.90
2022-12-12T10:48:37.501Z,23.63
2022-12-12T10:53:40.843Z,22.73
2022-12-12T10:58:43.591Z,23.93
2022-12-12T11:03:46.712Z,23.10
2022-12-12T11:08:57.206Z,23.40
2022-12-12T11:14:00.331Z,21.60
2022-12-12T11:19:07.392Z,22.20
2022-12-12T11:24:13.452Z,21.90
2022-12-12T11:29:34.835Z,23.33
2022-12-12T11:34:36.552Z,21.60
2022-12-12T11:39:41.622Z,21.20
2022-12-12T11:44:43.884Z,22.33
2022-12-12T11:49:46.122Z,22.63
2022-12-12T11:54:49.357Z,20.83
2022-12-12T12:00:09.493Z,21.50
2022-12-12T12:05:17.903Z,21.87
2022-12-12T12:10:24.699Z,22.97
2022-12-12T12:15:33.658Z,23.53
2022-12-12T12:20:43.156Z,22.57
2022-12-12T12:25:49.591Z,23.27
2022-12-12T12:30:54.287Z,23.43
2022-12-12T12:36:00.476Z,25.80
2022-12-12T12:41:24.544Z,68.77
2022-12-12T12:46:32.244Z,34.47
2022-12-12T12:51:35.188Z,46.47
2022-12-12T12:56:43.739Z,29.00
2022-12-12T13:01:47.181Z,25.37
2022-12-12T13:06:50.659Z,26.67
2022-12-12T13:11:55.829Z,26.90
2022-12-12T13:17:03.988Z,23.90
2022-12-12T13:22:07.869Z,22.27
2022-12-12T13:27:13.084Z,23.10
2022-12-12T13:32:49.216Z,21.00
2022-12-12T13:37:51.953Z,23.57
2022-12-12T13:42:59.884Z,22.90
2022-12-12T13:48:05.932Z,24.13
2022-12-12T13:53:25.743Z,23.20
2022-12-12T13:58:35.104Z,23.93
2022-12-12T14:03:36.788Z,24.77
2022-12-12T14:08:39.341Z,24.13
2022-12-12T14:13:45.163Z,24.60
2022-12-12T14:18:58.233Z,24.93
2022-12-12T14:23:59.971Z,27.17
2022-12-12T14:29:27.327Z,27.13
2022-12-12T14:34:29.469Z,25.80
2022-12-12T14:39:59.578Z,30.93
2022-12-12T14:45:02.687Z,26.90
2022-12-12T14:50:08.318Z,27.27
2022-12-12T14:55:14.038Z,27.30
2022-12-12T15:00:19.194Z,26.93
2022-12-12T15:05:20.956Z,28.77
2022-12-12T15:10:23.380Z,26.67
2022-12-12T15:15:27.689Z,27.87
2022-12-12T15:20:30.242Z,25.93
2022-12-12T15:25:33.461Z,26.27
2022-12-12T15:30:37.969Z,27.63
2022-12-12T15:35:40.936Z,26.40
2022-12-12T15:40:43.594Z,27.27
2022-12-12T15:45:51.260Z,29.67
2022-12-12T15:50:57.046Z,28.63
2022-12-12T15:56:00.435Z,29.10
2022-12-12T16:01:08.367Z,31.67
2022-12-12T16:06:23.179Z,29.27
2022-12-12T16:11:39.698Z,28.10
2022-12-12T16:16:45.124Z,29.37
2022-12-12T16:21:46.978Z,30.10
2022-12-12T16:26:48.793Z,27.70
2022-12-12T16:31:51.939Z,28.67
2022-12-12T16:36:54.063Z,27.90
2022-12-12T16:41:55.851Z,28.53
2022-12-12T16:46:58.941Z,25.97
2022-12-12T16:52:00.973Z,25.13
2022-12-12T16:57:02.836Z,25.90
2022-12-12T17:02:09.433Z,27.07
2022-12-12T17:07:11.239Z,26.83
2022-12-12T17:12:13.417Z,25.90
2022-12-12T17:17:16.602Z,25.53
2022-12-12T17:22:18.452Z,27.63
2022-12-12T17:27:20.369Z,26.07
2022-12-12T17:32:24.621Z,38.03
2022-12-12T17:37:26.513Z,30.40
2022-12-12T17:42:29.729Z,28.07
2022-12-12T17:47:32.874Z,26.97
2022-12-12T17:52:34.996Z,26.20
2022-12-12T17:57:37.034Z,29.90
2022-12-12T18:02:40.348Z,31.67
2022-12-12T18:07:42.248Z,28.23
2022-12-12T18:12:49.846Z,28.17
2022-12-12T18:17:54.705Z,30.07
2022-12-12T18:22:56.566Z,30.27
2022-12-12T18:27:58.724Z,28.43
2022-12-12T18:33:03.246Z,28.83
2022-12-12T18:38:05.221Z,32.60
2022-12-12T18:43:07.366Z,30.97
2022-12-12T18:48:10.521Z,31.60
2022-12-12T18:53:12.435Z,31.23
2022-12-12T18:58:14.268Z,33.27
2022-12-12T19:03:17.468Z,41.60
2022-12-12T19:08:20.221Z,34.33
2022-12-12T19:13:22.077Z,31.53
2022-12-12T19:18:25.147Z,32.60
2022-12-12T19:23:26.882Z,39.60
2022-12-12T19:28:28.650Z,36.53
2022-12-12T19:33:32.140Z,39.13
2022-12-12T19:38:33.951Z,34.27
2022-12-12T19:43:35.738Z,33.60
2022-12-12T19:48:38.919Z,35.90
2022-12-12T19:53:41.749Z,38.30
2022-12-12T19:58:43.649Z,50.07
2022-12-12T20:03:49.758Z,38.57
2022-12-12T20:08:51.710Z,36.20
2022-12-12T20:13:54.338Z,39.50
2022-12-12T20:18:59.191Z,41.60
2022-12-12T20:24:00.917Z,38.10
2022-12-12T20:29:03.154Z,38.80
2022-12-12T20:34:06.281Z,36.47
2022-12-12T20:39:08.664Z,41.17
2022-12-12T20:44:11.001Z,37.87
2022-12-12T20:49:15.771Z,34.43
2022-12-12T20:54:19.956Z,37.87
2022-12-12T20:59:21.769Z,36.10
2022-12-12T21:04:25.000Z,36.47
2022-12-12T21:09:27.105Z,37.70
2022-12-12T21:14:30.849Z,35.90
2022-12-12T21:19:34.621Z,33.40
2022-12-12T21:24:36.418Z,33.73
2022-12-12T21:29:38.230Z,35.43
2022-12-12T21:34:41.547Z,34.23
2022-12-12T21:39:45.422Z,34.80
2022-12-12T21:44:47.236Z,37.50
2022-12-12T21:49:50.336Z,37.77
2022-12-12T21:54:52.123Z,38.97
2022-12-12T21:59:53.957Z,36.97
2022-12-12T22:04:58.239Z,36.20
2022-12-12T22:10:10.823Z,38.03
2022-12-12T22:15:13.754Z,34.60
2022-12-12T22:20:17.173Z,37.80
2022-12-12T22:25:19.105Z,39.73
2022-12-12T22:30:21.433Z,40.23
2022-12-12T22:35:26.646Z,39.20
2022-12-12T22:40:28.624Z,38.90
2022-12-12T22:45:34.318Z,38.80
2022-12-12T22:50:37.665Z,37.17
2022-12-12T22:55:39.626Z,39.87
2022-12-12T23:00:41.645Z,40.43
2022-12-12T23:05:45.744Z,42.47
2022-12-12T23:10:47.545Z,40.77
2022-12-12T23:15:49.826Z,38.40
2022-12-12T23:20:52.976Z,38.23
2022-12-12T23:25:54.901Z,36.50
2022-12-12T23:30:56.854Z,36.90
2022-12-12T23:36:00.036Z,36.30
2022-12-12T23:41:02.983Z,34.20
2022-12-12T23:46:06.035Z,33.53
2022-12-12T23:51:09.178Z,27.53
2022-12-12T23:56:11.058Z,25.37
